Whitefield, United Kingdom
Current Conditions -  °F | °C
As of 7:20 AM on Sunday 23 Nov 2014 (Local Time) from EGCC Reporting Station
Light Rain Light Rain  
Wind Chill: 45°   Ceiling: 3200
Heat Index: 45°   Visibility: 6mi
Dew Point: 45°   Wind: 3mph
Humidity: 100%   Direction: 270°W
Pressure: 30.03"   Gusts: NA
Location:  53.55°N, 2.29°W
Report Text: EGCC 230720Z AUTO 27003KT 9999 -RA SCT018 BKN032 BKN038 07/07 Q1017
Loading
Personal Weather Stations






























Interactive Weather Map New forecast layout! Learn more

10-Day Weather Forecast

Advertisements
Track Severe Weather on mobile